createdAt,value
2019-01-14T00:00:39.952Z,88.24
2019-01-14T00:01:39.940Z,88.86
2019-01-14T00:02:39.953Z,88.96
2019-01-14T00:03:39.918Z,88.14
2019-01-14T00:04:39.911Z,88.39
2019-01-14T00:05:39.897Z,88.04
2019-01-14T00:06:39.890Z,87.73
2019-01-14T00:07:39.893Z,87.73
2019-01-14T00:08:39.864Z,88.14
2019-01-14T00:09:39.853Z,87.63
2019-01-14T00:10:39.843Z,87.73
2019-01-14T00:11:39.830Z,88.04
2019-01-14T00:12:39.842Z,87.83
2019-01-14T00:13:39.812Z,87.63
2019-01-14T00:14:39.799Z,87.42
2019-01-14T00:15:39.788Z,87.52
2019-01-14T00:16:39.776Z,87.63
2019-01-14T00:17:39.789Z,86.70
2019-01-14T00:18:39.753Z,87.01
2019-01-14T00:19:39.748Z,87.01
2019-01-14T00:20:39.732Z,86.29
2019-01-14T00:21:39.722Z,87.73
2019-01-14T00:22:39.713Z,87.21
2019-01-14T00:23:40.172Z,86.90
2019-01-14T00:24:39.689Z,86.18
2019-01-14T00:25:39.678Z,86.70
2019-01-14T00:26:39.668Z,86.60
2019-01-14T00:27:39.675Z,87.01
2019-01-14T00:28:39.647Z,87.21
2019-01-14T00:29:39.634Z,87.42
2019-01-14T00:30:39.622Z,87.42
2019-01-14T00:31:39.615Z,87.63
2019-01-14T00:32:39.628Z,86.80
2019-01-14T00:33:39.591Z,87.11
2019-01-14T00:34:39.582Z,86.80
2019-01-14T00:35:39.568Z,87.11
2019-01-14T00:36:39.561Z,87.52
2019-01-14T00:37:39.548Z,87.11
2019-01-14T00:38:39.557Z,87.01
2019-01-14T00:39:39.526Z,86.18
2019-01-14T00:40:39.513Z,86.80
2019-01-14T00:41:39.502Z,86.29
2019-01-14T00:42:39.490Z,86.39
2019-01-14T00:43:40.176Z,86.29
2019-01-14T00:44:39.470Z,86.29
2019-01-14T00:45:39.458Z,86.18
2019-01-14T00:46:39.448Z,86.18
2019-01-14T00:47:39.435Z,86.08
2019-01-14T00:48:39.447Z,86.39
2019-01-14T00:49:39.419Z,85.67
2019-01-14T00:50:39.403Z,85.57
2019-01-14T00:51:39.392Z,85.97
2019-01-14T00:52:39.386Z,86.08
2019-01-14T00:53:40.175Z,85.87
2019-01-14T00:54:39.359Z,86.29
2019-01-14T00:55:39.356Z,86.39
2019-01-14T00:56:39.357Z,86.08
2019-01-14T00:57:39.328Z,86.18
2019-01-14T00:58:39.317Z,85.87
2019-01-14T00:59:39.325Z,85.97
2019-01-14T01:00:39.296Z,85.67
2019-01-14T01:01:39.283Z,86.39
2019-01-14T01:02:39.273Z,85.77
2019-01-14T01:03:39.265Z,86.08
2019-01-14T01:04:39.271Z,85.83
2019-01-14T01:05:39.239Z,85.77
2019-01-14T01:06:39.227Z,85.87
2019-01-14T01:07:39.217Z,86.45
2019-01-14T01:08:39.206Z,86.18
2019-01-14T01:09:39.215Z,86.18
2019-01-14T01:10:39.183Z,85.57
2019-01-14T01:11:39.174Z,85.46
2019-01-14T01:12:39.162Z,82.57
2019-01-14T01:13:39.150Z,82.82
2019-01-14T01:14:40.678Z,83.33
2019-01-14T01:15:39.133Z,83.06
2019-01-14T01:16:39.118Z,83.93
2019-01-14T01:17:39.107Z,86.34
2019-01-14T01:18:39.097Z,86.24
2019-01-14T01:19:39.104Z,87.27
2019-01-14T01:20:39.074Z,87.99
2019-01-14T01:21:39.067Z,88.20
2019-01-14T01:22:39.053Z,88.92
2019-01-14T01:23:39.041Z,89.75
2019-01-14T01:24:39.054Z,89.65
2019-01-14T01:25:39.021Z,89.95
2019-01-14T01:26:39.009Z,89.86
2019-01-14T01:27:38.998Z,89.75
2019-01-14T01:28:38.986Z,89.75
2019-01-14T01:29:39.001Z,89.44
2019-01-14T01:30:38.963Z,89.29
2019-01-14T01:31:38.958Z,90.02
2019-01-14T01:32:38.945Z,90.53
2019-01-14T01:33:38.933Z,90.64
2019-01-14T01:34:38.942Z,91.36
2019-01-14T01:35:38.912Z,91.05
2019-01-14T01:36:38.898Z,90.22
2019-01-14T01:37:38.889Z,91.16
2019-01-14T01:38:38.878Z,90.33
2019-01-14T01:39:38.885Z,90.43
2019-01-14T01:40:38.854Z,90.12
2019-01-14T01:41:38.844Z,90.02
2019-01-14T01:42:38.834Z,89.50
2019-01-14T01:43:38.822Z,88.89
2019-01-14T01:44:38.836Z,87.85
2019-01-14T01:45:38.802Z,88.32
2019-01-14T01:46:38.788Z,89.05
2019-01-14T01:47:38.782Z,89.56
2019-01-14T01:48:38.768Z,87.92
2019-01-14T01:49:38.782Z,87.81
2019-01-14T01:50:38.745Z,87.50
2019-01-14T01:51:38.735Z,87.50
2019-01-14T01:52:38.723Z,87.92
2019-01-14T01:53:38.713Z,87.60
2019-01-14T01:54:38.704Z,87.40
2019-01-14T01:55:38.714Z,86.88
2019-01-14T01:56:38.682Z,87.50
2019-01-14T01:57:38.671Z,87.05
2019-01-14T01:58:38.663Z,87.29
2019-01-14T01:59:38.647Z,88.12
2019-01-14T02:00:38.658Z,87.60
2019-01-14T02:01:38.627Z,87.50
2019-01-14T02:02:38.615Z,87.81
2019-01-14T02:03:38.603Z,88.32
2019-01-14T02:04:38.592Z,88.22
2019-01-14T02:05:39.220Z,88.22
2019-01-14T02:06:39.292Z,87.92
2019-01-14T02:07:38.561Z,88.95
2019-01-14T02:08:38.549Z,88.43
2019-01-14T02:09:38.539Z,88.84
2019-01-14T02:10:38.527Z,89.15
2019-01-14T02:11:38.536Z,88.95
2019-01-14T02:12:38.508Z,88.64
2019-01-14T02:13:38.496Z,88.43
2019-01-14T02:14:38.483Z,88.02
2019-01-14T02:15:38.497Z,88.43
2019-01-14T02:16:38.463Z,88.02
2019-01-14T02:17:38.452Z,88.32
2019-01-14T02:18:38.439Z,88.64
2019-01-14T02:19:38.430Z,88.64
2019-01-14T02:20:38.418Z,88.22
2019-01-14T02:21:38.426Z,87.60
2019-01-14T02:22:38.397Z,87.50
2019-01-14T02:23:38.385Z,88.02
2019-01-14T02:24:38.373Z,87.87
2019-01-14T02:25:38.362Z,87.71
2019-01-14T02:26:38.375Z,87.35
2019-01-14T02:27:38.342Z,87.87
2019-01-14T02:28:38.330Z,88.12
2019-01-14T02:29:38.318Z,87.87
2019-01-14T02:30:38.313Z,87.81
2019-01-14T02:31:38.317Z,87.50
2019-01-14T02:32:38.293Z,87.87
2019-01-14T02:33:38.276Z,87.60
2019-01-14T02:34:38.265Z,87.66
2019-01-14T02:35:38.254Z,87.77
2019-01-14T02:36:38.274Z,87.05
2019-01-14T02:37:38.231Z,87.81
2019-01-14T02:38:38.220Z,87.66
2019-01-14T02:39:38.211Z,87.77
2019-01-14T02:40:38.198Z,87.46
2019-01-14T02:41:38.186Z,86.98
2019-01-14T02:42:38.201Z,87.71
2019-01-14T02:43:38.166Z,87.81
2019-01-14T02:44:38.155Z,87.60
2019-01-14T02:45:38.148Z,87.19
2019-01-14T02:46:38.137Z,87.60
2019-01-14T02:47:38.146Z,87.19
2019-01-14T02:48:38.112Z,87.29
2019-01-14T02:49:38.102Z,86.36
2019-01-14T02:50:38.088Z,87.81
2019-01-14T02:51:38.079Z,87.40
2019-01-14T02:52:39.664Z,85.85
2019-01-14T02:53:38.055Z,85.95
2019-01-14T02:54:38.043Z,87.71
2019-01-14T02:55:38.035Z,87.19
2019-01-14T02:56:38.026Z,86.30
2019-01-14T02:57:38.037Z,87.23
2019-01-14T02:58:38.000Z,87.95
2019-01-14T02:59:37.991Z,87.44
2019-01-14T03:00:37.983Z,87.23
2019-01-14T03:01:37.968Z,86.16
2019-01-14T03:02:37.960Z,87.13
2019-01-14T03:03:37.966Z,85.27
2019-01-14T03:04:37.936Z,86.30
2019-01-14T03:05:37.925Z,86.20
2019-01-14T03:06:37.913Z,85.58
2019-01-14T03:07:37.904Z,86.10
2019-01-14T03:08:37.922Z,86.30
2019-01-14T03:09:37.882Z,86.41
2019-01-14T03:10:37.872Z,86.30
2019-01-14T03:11:37.859Z,87.34
2019-01-14T03:12:37.848Z,87.23
2019-01-14T03:13:37.857Z,86.61
2019-01-14T03:14:37.825Z,87.13
2019-01-14T03:15:37.814Z,86.41
2019-01-14T03:16:37.805Z,87.74
2019-01-14T03:17:37.799Z,87.44
2019-01-14T03:18:37.801Z,87.44
2019-01-14T03:19:37.771Z,87.13
2019-01-14T03:20:37.762Z,87.34
2019-01-14T03:21:37.759Z,87.02
2019-01-14T03:22:37.739Z,87.54
2019-01-14T03:23:37.752Z,87.44
2019-01-14T03:24:37.716Z,87.34
2019-01-14T03:25:37.708Z,87.95
2019-01-14T03:26:37.696Z,87.65
2019-01-14T03:27:37.686Z,87.54
2019-01-14T03:28:37.677Z,87.65
2019-01-14T03:29:37.684Z,87.95
2019-01-14T03:30:37.655Z,87.54
2019-01-14T03:31:37.641Z,87.74
2019-01-14T03:32:37.637Z,86.92
2019-01-14T03:33:37.637Z,87.40
2019-01-14T03:34:37.607Z,87.34
2019-01-14T03:35:37.595Z,87.08
2019-01-14T03:36:37.587Z,87.74
2019-01-14T03:37:37.574Z,87.50
2019-01-14T03:38:37.603Z,87.29
2019-01-14T03:39:37.554Z,87.13
2019-01-14T03:40:37.541Z,87.40
2019-01-14T03:41:37.531Z,86.88
2019-01-14T03:42:37.518Z,87.50
2019-01-14T03:43:37.507Z,87.50
2019-01-14T03:44:38.202Z,87.50
2019-01-14T03:45:37.484Z,88.22
2019-01-14T03:46:37.480Z,89.15
2019-01-14T03:47:37.462Z,89.50
2019-01-14T03:48:37.495Z,89.67
2019-01-14T03:49:37.453Z,89.71
2019-01-14T03:50:37.432Z,90.22
2019-01-14T03:51:37.423Z,90.22
2019-01-14T03:52:37.414Z,90.22
2019-01-14T03:53:37.399Z,90.33
2019-01-14T03:54:37.411Z,90.84
2019-01-14T03:55:37.375Z,89.61
2019-01-14T03:56:37.366Z,89.61
2019-01-14T03:57:37.355Z,89.71
2019-01-14T03:58:37.345Z,89.50
2019-01-14T03:59:37.354Z,89.40
2019-01-14T04:00:37.321Z,90.33
2019-01-14T04:01:37.311Z,89.61
2019-01-14T04:02:37.305Z,89.81
2019-01-14T04:03:37.290Z,89.71
2019-01-14T04:04:38.205Z,89.50
2019-01-14T04:05:37.266Z,89.61
2019-01-14T04:06:37.257Z,89.50
2019-01-14T04:07:37.245Z,89.71
2019-01-14T04:08:37.238Z,89.81
2019-01-14T04:09:37.225Z,89.44
2019-01-14T04:10:37.231Z,89.19
2019-01-14T04:11:37.201Z,89.50
2019-01-14T04:12:37.190Z,89.34
2019-01-14T04:13:37.182Z,89.71
2019-01-14T04:14:37.169Z,89.71
2019-01-14T04:15:37.188Z,89.19
2019-01-14T04:16:37.146Z,89.34
2019-01-14T04:17:37.134Z,89.50
2019-01-14T04:18:37.127Z,89.50
2019-01-14T04:19:37.116Z,89.61
2019-01-14T04:20:37.145Z,89.23
2019-01-14T04:21:37.090Z,89.23
2019-01-14T04:22:37.080Z,89.23
2019-01-14T04:23:37.069Z,88.82
2019-01-14T04:24:37.061Z,89.65
2019-01-14T04:25:37.047Z,89.13
2019-01-14T04:26:37.061Z,88.92
2019-01-14T04:27:37.027Z,88.82
2019-01-14T04:28:37.018Z,89.54
2019-01-14T04:29:37.004Z,89.23
2019-01-14T04:30:36.993Z,88.71
2019-01-14T04:31:36.981Z,89.34
2019-01-14T04:32:36.992Z,88.51
2019-01-14T04:33:36.963Z,88.61
2019-01-14T04:34:36.952Z,88.82
2019-01-14T04:35:36.937Z,88.92
2019-01-14T04:36:36.929Z,89.75
2019-01-14T04:37:36.937Z,88.20
2019-01-14T04:38:36.905Z,88.61
2019-01-14T04:39:36.897Z,89.44
2019-01-14T04:40:36.886Z,89.65
2019-01-14T04:41:36.872Z,88.92
2019-01-14T04:42:36.935Z,87.68
2019-01-14T04:43:36.852Z,87.99
2019-01-14T04:44:36.840Z,87.68
2019-01-14T04:45:36.831Z,87.79
2019-01-14T04:46:36.818Z,87.68
2019-01-14T04:47:37.206Z,87.79
2019-01-14T04:48:36.797Z,87.79
2019-01-14T04:49:36.785Z,87.68
2019-01-14T04:50:36.779Z,87.99
2019-01-14T04:51:36.762Z,87.79
2019-01-14T04:52:36.779Z,88.10
2019-01-14T04:53:36.755Z,88.10
2019-01-14T04:54:36.730Z,88.10
2019-01-14T04:55:36.724Z,87.79
2019-01-14T04:56:36.710Z,88.10
2019-01-14T04:57:36.698Z,88.20
2019-01-14T04:58:36.707Z,87.93
2019-01-14T04:59:36.677Z,87.62
2019-01-14T05:00:36.666Z,87.52
2019-01-14T05:01:36.654Z,87.83
2019-01-14T05:02:36.645Z,88.14
2019-01-14T05:03:36.657Z,88.04
2019-01-14T05:04:36.621Z,87.79
2019-01-14T05:05:36.611Z,88.24
2019-01-14T05:06:36.600Z,87.62
2019-01-14T05:07:36.588Z,87.83
2019-01-14T05:08:36.577Z,87.62
2019-01-14T05:09:36.585Z,87.73
2019-01-14T05:10:36.557Z,87.83
2019-01-14T05:11:36.547Z,87.93
2019-01-14T05:12:36.534Z,88.14
2019-01-14T05:13:36.526Z,88.14
2019-01-14T05:14:36.536Z,88.34
2019-01-14T05:15:37.080Z,87.73
2019-01-14T05:16:36.491Z,87.83
2019-01-14T05:17:36.477Z,87.73
2019-01-14T05:18:36.469Z,87.62
2019-01-14T05:19:36.478Z,87.73
2019-01-14T05:20:36.446Z,87.52
2019-01-14T05:21:36.435Z,88.18
2019-01-14T05:22:36.423Z,88.28
2019-01-14T05:23:36.413Z,87.93
2019-01-14T05:24:37.218Z,87.93
2019-01-14T05:25:36.390Z,88.55
2019-01-14T05:26:36.383Z,87.83
2019-01-14T05:27:36.371Z,88.04
2019-01-14T05:28:36.358Z,88.07
2019-01-14T05:29:36.370Z,87.76
2019-01-14T05:30:36.337Z,88.18
2019-01-14T05:31:36.328Z,87.73
2019-01-14T05:32:36.313Z,87.73
2019-01-14T05:33:36.305Z,87.93
2019-01-14T05:34:37.213Z,88.07
2019-01-14T05:35:36.284Z,87.76
2019-01-14T05:36:36.276Z,87.83
2019-01-14T05:37:37.792Z,87.56
2019-01-14T05:38:36.251Z,88.24
2019-01-14T05:39:36.260Z,88.18
2019-01-14T05:40:36.229Z,87.83
2019-01-14T05:41:36.216Z,87.31
2019-01-14T05:42:36.206Z,87.56
2019-01-14T05:43:36.401Z,87.21
2019-01-14T05:44:37.720Z,87.41
2019-01-14T05:45:36.174Z,87.73
2019-01-14T05:46:36.161Z,87.73
2019-01-14T05:47:36.151Z,87.83
2019-01-14T05:48:36.140Z,87.87
